KLHX

La Junta Municipal Airport

La Junta, Colorado, USA
METAR KLHX 231953Z AUTO 09008KT 10SM CLR 18/09 A3019 RMK AO2 SLP193 T01830094
Observed Flight Rules
Oct-23 @ 19:53 UTC (38 minutes ago) Visual Flight Rules
Wind Visibility Clouds
90° at 8 knots 10 miles
  • Clear skies
Temperatures Readings
Current 18°C / 64°F
Dewpoint 9°C / 48°F
Humidity 56%
Altimeter 30.19" Hg
Pressure 1019.3 hPa
Elevation 1277
METAR KLHX 231953Z AUTO 09008KT 10SM CLR 18/09 A3019 RMK AO2 SLP193 T01830094
Observed Flight Rules
Oct-23 @ 19:53 UTC
(38 minutes ago)
VFR
Wind Visibility
90° at 8 knots 10 miles
Clouds
  • Clear skies
Temperature Dewpoint
18°C / 64°F 9°C / 48°F
Humidity Altimeter Pressure
56% 30.19" Hg 1019.3 hPa